Time;durP1;ratioP1;P1;durP2;ratioP2;P2;SDS_P1;SDS_P2;PMS_P1;PMS_P2;Temp;Humidity;BMP_temperature;BMP_pressure;BME280_temperature;BME280_humidity;BME280_pressure;Samples;Min_cycle;Max_cycle;Signal;HPM_P1;HPM_P2
2022/08/12 00:44:28;;;;;;;2.90;2.30;;;;;;;15.31;100.00;99630.69;5052085;28;20248;-82
2022/08/12 00:46:57;;;;;;;2.70;2.00;;;;;;;15.21;100.00;99639.47;5048279;28;20230;-81
2022/08/12 00:49:25;;;;;;;2.97;1.97;;;;;;;15.14;100.00;99636.16;5048075;28;20234;-81
2022/08/12 00:52:06;;;;;;;3.00;2.37;;;;;;;15.07;100.00;99626.63;5046157;28;20233;-82
2022/08/12 00:55:08;;;;;;;3.97;2.40;;;;;;;15.01;100.00;99622.22;5046185;28;20232;-82
2022/08/12 00:57:35;;;;;;;2.30;2.10;;;;;;;14.92;100.00;99628.03;5045274;28;20312;-81
2022/08/12 01:00:12;;;;;;;2.20;2.00;;;;;;;14.86;100.00;99644.38;5046389;28;20233;-82
2022/08/12 01:02:41;;;;;;;2.23;2.03;;;;;;;14.74;100.00;99636.41;5045423;28;20221;-82
2022/08/12 01:13:30;;;;;;;2.30;2.10;;;;;;;14.50;100.00;99616.88;5043807;28;20738;-81
2022/08/12 01:15:58;;;;;;;4.00;2.40;;;;;;;14.48;100.00;99610.91;5048276;28;20237;-83
2022/08/12 01:18:27;;;;;;;2.43;2.23;;;;;;;14.50;100.00;99613.34;5045043;28;20248;-81
2022/08/12 01:21:15;;;;;;;4.10;2.17;;;;;;;14.42;100.00;99606.47;5048953;28;20221;-81
2022/08/12 01:24:03;;;;;;;2.73;2.03;;;;;;;14.38;100.00;99610.72;5047766;28;20225;-82
2022/08/12 01:26:50;;;;;;;2.50;2.30;;;;;;;14.31;100.00;99610.06;5045843;28;20217;-83
2022/08/12 01:29:25;;;;;;;2.63;2.27;;;;;;;14.24;100.00;99604.00;5048441;28;20236;-82
2022/08/12 01:31:57;;;;;;;2.57;2.20;;;;;;;14.22;100.00;99608.81;5033844;28;20691;-81
2022/08/12 01:34:30;;;;;;;2.80;2.20;;;;;;;14.21;100.00;99609.88;5029864;28;20253;-83
2022/08/12 01:37:04;;;;;;;2.70;2.17;;;;;;;14.16;100.00;99606.28;5049803;28;20253;-83
2022/08/12 01:39:53;;;;;;;2.33;2.13;;;;;;;14.09;100.00;99604.53;5050008;28;20324;-83
2022/08/12 01:42:50;;;;;;;2.30;2.10;;;;;;;14.07;100.00;99609.38;5044840;28;20271;-83
2022/08/12 01:45:23;;;;;;;2.50;2.10;;;;;;;13.98;100.00;99608.13;5032972;28;20248;-83
2022/08/12 01:48:03;;;;;;;4.40;2.50;;;;;;;13.95;100.00;99610.50;5033750;28;20244;-82
2022/08/12 01:50:56;;;;;;;2.40;2.20;;;;;;;13.91;100.00;99606.63;5046850;28;20237;-82
2022/08/12 01:53:35;;;;;;;3.03;2.00;;;;;;;13.86;100.00;99606.53;5048653;28;20229;-82
2022/08/12 01:56:56;;;;;;;3.87;2.20;;;;;;;13.81;100.00;99599.19;5049262;28;20312;-82
2022/08/12 01:59:48;;;;;;;3.47;2.00;;;;;;;13.73;100.00;99599.56;5049419;28;20239;-82
2022/08/12 02:02:18;;;;;;;2.53;1.97;;;;;;;13.70;100.00;99600.06;5042888;28;20298;-82
2022/08/12 02:11:15;;;;;;;2.37;2.17;;;;;;;13.57;100.00;99592.28;5038722;28;20229;-80
2022/08/12 02:14:01;;;;;;;2.17;2.03;;;;;;;13.52;100.00;99598.38;5046593;28;20276;-81
2022/08/12 02:17:05;;;;;;;2.30;2.10;;;;;;;13.48;100.00;99597.22;5043328;28;20240;-80
2022/08/12 02:19:52;;;;;;;2.50;1.83;;;;;;;13.43;100.00;99599.81;5041640;28;20258;-79
2022/08/12 02:22:29;;;;;;;2.33;2.13;;;;;;;13.42;100.00;99591.97;5048077;28;20251;-80
2022/08/12 02:25:22;;;;;;;2.63;2.07;;;;;;;13.27;100.00;99581.72;5050254;28;20610;-80
2022/08/12 02:27:51;;;;;;;3.20;2.30;;;;;;;13.23;100.00;99585.94;5047248;28;20299;-80
2022/08/12 02:30:23;;;;;;;2.90;2.03;;;;;;;13.16;100.00;99585.25;5043669;28;20707;-80
2022/08/12 02:32:51;;;;;;;2.77;2.23;;;;;;;13.08;100.00;99577.50;5044240;28;20227;-80
2022/08/12 02:35:24;;;;;;;2.60;2.40;;;;;;;13.07;100.00;99587.44;5048644;28;20235;-80
2022/08/12 02:37:53;;;;;;;3.10;1.90;;;;;;;13.04;100.00;99585.25;5051466;28;20237;-80
2022/08/12 02:40:21;;;;;;;4.20;2.10;;;;;;;13.05;100.00;99581.50;5047774;28;20231;-80
2022/08/12 02:43:11;;;;;;;2.27;2.03;;;;;;;13.03;100.00;99585.47;5049027;28;20283;-80
2022/08/12 02:46:00;;;;;;;3.17;2.10;;;;;;;12.95;100.00;99583.16;5051254;28;20227;-80
2022/08/12 02:48:38;;;;;;;1.97;1.87;;;;;;;12.93;100.00;99583.38;5051632;28;20730;-79
2022/08/12 02:51:08;;;;;;;2.67;2.47;;;;;;;12.89;100.00;99579.53;5052171;28;20227;-80
2022/08/12 02:53:36;;;;;;;2.67;2.27;;;;;;;12.86;100.00;99577.31;5057086;28;20237;-80
2022/08/12 02:56:04;;;;;;;2.40;2.20;;;;;;;12.82;100.00;99576.16;5054781;28;20322;-80
2022/08/12 02:58:34;;;;;;;3.13;2.30;;;;;;;12.84;100.00;99592.84;5054573;28;20769;-81
2022/08/12 03:01:04;;;;;;;3.77;2.20;;;;;;;12.80;100.00;99580.94;5054988;28;20231;-80
2022/08/12 03:03:33;;;;;;;2.33;2.00;;;;;;;12.74;100.00;99576.50;5054334;28;20224;-82
2022/08/12 03:06:08;;;;;;;3.20;2.43;;;;;;;12.70;100.00;99578.84;5053301;28;20230;-81
2022/08/12 03:08:41;;;;;;;2.47;2.27;;;;;;;12.69;100.00;99579.09;5052654;28;20287;-81
2022/08/12 03:11:35;;;;;;;2.40;2.20;;;;;;;12.68;100.00;99580.16;5050148;28;20233;-81
2022/08/12 03:14:12;;;;;;;2.40;2.20;;;;;;;12.64;100.00;99587.03;5050873;28;20310;-80
2022/08/12 03:16:40;;;;;;;8.07;2.43;;;;;;;12.61;100.00;99588.31;5047372;28;20234;-81
2022/08/12 03:19:07;;;;;;;4.10;2.40;;;;;;;12.58;100.00;99588.78;5048853;28;20251;-81
2022/08/12 03:21:36;;;;;;;3.83;2.30;;;;;;;12.60;100.00;99586.66;5052149;28;20255;-82
2022/08/12 03:24:26;;;;;;;8.13;3.90;;;;;;;12.55;100.00;99589.22;5082482;28;20234;-81
2022/08/12 03:26:53;;;;;;;4.57;2.73;;;;;;;12.55;100.00;99586.53;5055334;28;20250;-81
2022/08/12 03:29:29;;;;;;;5.00;2.30;;;;;;;12.52;100.00;99586.19;5056061;28;20448;-80
2022/08/12 03:31:59;;;;;;;4.63;2.57;;;;;;;12.51;100.00;99582.69;5045293;28;20231;-81
2022/08/12 03:34:28;;;;;;;4.73;2.80;;;;;;;12.48;100.00;99585.03;5050441;28;20295;-81
2022/08/12 03:36:57;;;;;;;4.57;2.50;;;;;;;12.48;100.00;99585.03;5048628;28;20581;-80
2022/08/12 03:39:40;;;;;;;4.90;2.50;;;;;;;12.45;100.00;99599.78;5043539;28;20266;-80
2022/08/12 03:42:29;;;;;;;3.23;2.27;;;;;;;12.45;100.00;99598.94;5048221;28;20223;-79
2022/08/12 04:02:34;;;;;;;3.20;2.47;;;;;;;12.57;100.00;99595.22;5053401;28;20229;-82
2022/08/12 04:05:03;;;;;;;5.43;2.90;;;;;;;12.58;100.00;99604.09;5062167;28;20253;-82
2022/08/12 04:07:31;;;;;;;2.50;2.20;;;;;;;12.63;100.00;99601.53;5048719;28;20313;-84
2022/08/12 04:09:59;;;;;;;2.27;2.07;;;;;;;12.71;100.00;99604.69;5039407;28;20741;-82
2022/08/12 04:15:24;;;;;;;2.70;2.50;;;;;;;12.86;100.00;99619.53;5059854;28;20242;-83
2022/08/12 04:17:53;;;;;;;2.83;2.37;;;;;;;12.95;100.00;99618.09;5042946;28;20228;-84
2022/08/12 04:20:34;;;;;;;4.47;2.40;;;;;;;13.03;100.00;99615.88;5047909;28;20228;-83
2022/08/12 04:23:07;;;;;;;5.13;2.47;;;;;;;13.13;100.00;99618.00;5060954;28;20273;-83
2022/08/12 04:26:05;;;;;;;3.47;2.03;;;;;;;13.32;100.00;99621.34;5050572;28;20255;-82
2022/08/12 04:28:38;;;;;;;2.53;2.30;;;;;;;13.44;100.00;99622.13;5041076;28;20223;-82
2022/08/12 04:31:06;;;;;;;3.67;2.30;;;;;;;13.58;100.00;99624.31;5057483;28;20242;-82
2022/08/12 04:33:40;;;;;;;3.03;2.43;;;;;;;13.76;100.00;99625.22;5049952;28;20239;-82
2022/08/12 04:36:21;;;;;;;3.90;2.20;;;;;;;13.99;100.00;99619.72;5044433;28;20239;-82
2022/08/12 04:38:51;;;;;;;3.00;2.17;;;;;;;14.18;100.00;99623.84;5055830;28;20308;-85
2022/08/12 04:41:26;;;;;;;3.73;2.43;;;;;;;14.41;100.00;99620.22;5071158;28;20231;-83
2022/08/12 04:43:58;;;;;;;2.90;2.37;;;;;;;14.60;100.00;99627.00;5059790;28;20268;-83
2022/08/12 04:46:31;;;;;;;3.03;2.60;;;;;;;14.81;100.00;99628.94;5060402;28;20320;-82
2022/08/12 04:49:04;;;;;;;3.00;2.70;;;;;;;15.05;100.00;99634.94;5039311;28;20699;-82
2022/08/12 04:51:31;;;;;;;2.50;2.30;;;;;;;15.27;100.00;99630.41;5054242;28;20267;-83
2022/08/12 04:54:00;;;;;;;3.00;2.70;;;;;;;15.47;100.00;99631.72;5044491;28;20232;-83
2022/08/12 04:56:28;;;;;;;3.67;3.00;;;;;;;15.65;100.00;99639.53;5030491;28;20233;-83
2022/08/12 04:59:01;;;;;;;4.17;2.90;;;;;;;15.90;100.00;99639.03;5038850;28;20275;-82
2022/08/12 05:01:31;;;;;;;3.60;3.03;;;;;;;16.08;100.00;99644.06;5023550;28;20319;-83
2022/08/12 05:03:58;;;;;;;5.17;3.27;;;;;;;16.33;100.00;99646.22;5008197;28;20287;-83
2022/08/12 05:06:25;;;;;;;5.50;3.23;;;;;;;16.54;100.00;99648.00;5033176;28;20351;-83
2022/08/12 05:08:54;;;;;;;4.00;3.53;;;;;;;16.72;100.00;99640.34;5026018;28;20241;-82
2022/08/12 05:11:23;;;;;;;3.53;3.23;;;;;;;16.91;100.00;99645.34;4999450;28;20737;-83
2022/08/12 05:13:56;;;;;;;3.83;3.30;;;;;;;17.03;100.00;99645.97;5016610;28;20288;-83
2022/08/12 05:16:23;;;;;;;4.23;3.30;;;;;;;17.10;100.00;99650.06;5026360;28;20234;-83
2022/08/12 05:18:57;;;;;;;3.53;3.23;;;;;;;17.25;100.00;99646.66;5011891;28;20263;-83
2022/08/12 05:21:25;;;;;;;3.90;3.13;;;;;;;17.41;100.00;99642.09;5017288;28;20233;-83
2022/08/12 05:23:53;;;;;;;5.20;3.20;;;;;;;17.66;96.94;99653.09;5016782;28;20222;-83
2022/08/12 05:26:21;;;;;;;5.23;3.30;;;;;;;17.79;94.36;99643.66;5032125;28;20320;-83
2022/08/12 05:28:48;;;;;;;4.20;3.03;;;;;;;17.91;93.87;99650.47;4997821;28;20242;-83
2022/08/12 05:31:16;;;;;;;4.77;3.10;;;;;;;18.11;91.95;99655.13;5030835;28;20222;-84
2022/08/12 05:34:04;;;;;;;3.40;2.90;;;;;;;18.38;90.14;99649.47;5032933;28;20221;-83
2022/08/12 05:36:31;;;;;;;3.30;3.00;;;;;;;18.56;86.65;99648.16;5024792;28;20406;-83
2022/08/12 05:38:58;;;;;;;3.57;2.83;;;;;;;18.73;84.77;99637.84;5029373;28;20704;-84
2022/08/12 05:41:30;;;;;;;3.47;2.83;;;;;;;18.91;83.77;99648.13;5040233;28;20225;-83
2022/08/12 05:44:03;;;;;;;3.43;2.60;;;;;;;19.02;82.01;99644.31;5026939;28;20232;-83
2022/08/12 05:46:31;;;;;;;3.70;2.20;;;;;;;19.22;76.56;99646.19;5001294;28;20242;-85
2022/08/12 05:48:59;;;;;;;2.50;2.23;;;;;;;19.49;75.34;99640.44;5014308;28;20317;-83
2022/08/12 05:51:29;;;;;;;2.70;2.50;;;;;;;19.70;73.19;99640.06;5016785;28;20274;-83
2022/08/12 05:54:09;;;;;;;4.07;2.30;;;;;;;19.88;70.86;99640.50;5032624;28;20268;-84
2022/08/12 05:56:37;;;;;;;3.43;2.13;;;;;;;19.58;70.30;99633.31;5022112;28;20317;-83
2022/08/12 05:59:06;;;;;;;3.47;2.00;;;;;;;19.98;69.49;99638.53;5032477;28;20234;-84
2022/08/12 06:01:33;;;;;;;2.10;1.90;;;;;;;20.21;67.85;99643.28;5040304;28;20242;-84
2022/08/12 06:04:20;;;;;;;2.27;2.00;;;;;;;20.27;67.61;99645.97;5053005;28;20312;-83
2022/08/12 06:06:51;;;;;;;2.30;2.10;;;;;;;20.32;66.31;99646.78;5053003;28;20225;-84
2022/08/12 06:09:18;;;;;;;2.60;1.80;;;;;;;20.56;64.96;99645.00;5052871;28;20261;-83
2022/08/12 06:11:46;;;;;;;2.67;2.03;;;;;;;20.47;65.13;99641.25;5051729;28;20319;-84
2022/08/12 06:14:35;;;;;;;2.57;1.80;;;;;;;20.13;67.22;99641.19;5038883;28;20231;-84
2022/08/12 06:17:03;;;;;;;1.90;1.70;;;;;;;20.44;65.92;99647.25;5054542;28;20234;-84
2022/08/12 06:19:30;;;;;;;3.67;1.70;;;;;;;20.41;67.07;99647.00;5036615;28;20264;-84
2022/08/12 06:22:17;;;;;;;3.17;1.60;;;;;;;20.17;66.34;99644.13;5051803;28;20319;-84
2022/08/12 06:24:43;;;;;;;2.40;1.73;;;;;;;20.09;68.00;99642.84;5053551;28;20224;-83
2022/08/12 06:27:10;;;;;;;2.23;1.63;;;;;;;20.09;70.13;99652.91;5052197;28;20234;-83
2022/08/12 06:29:38;;;;;;;4.07;1.60;;;;;;;19.91;72.34;99650.84;5049832;28;20232;-83
2022/08/12 06:32:26;;;;;;;3.13;1.67;;;;;;;19.68;73.99;99649.59;5053222;28;20235;-84
2022/08/12 06:34:55;;;;;;;4.83;1.73;;;;;;;19.71;74.99;99649.84;5020425;28;20285;-85
2022/08/12 06:37:46;;;;;;;1.70;1.60;;;;;;;19.65;77.90;99650.13;5040635;28;20238;-83
2022/08/12 06:43:08;;;;;;;2.17;1.60;;;;;;;19.71;76.65;99638.16;5037321;28;20241;-84
2022/08/12 06:45:44;;;;;;;4.53;1.77;;;;;;;19.68;75.77;99634.09;5020827;28;20315;-84
2022/08/12 06:48:12;;;;;;;2.70;1.60;;;;;;;19.77;77.73;99640.56;5038121;28;20234;-83
2022/08/12 06:50:41;;;;;;;1.73;1.53;;;;;;;19.85;73.04;99646.50;5037416;28;20234;-85
2022/08/12 06:53:09;;;;;;;2.73;1.50;;;;;;;19.88;72.15;99640.50;5021382;28;20245;-83
2022/08/12 06:55:38;;;;;;;1.93;1.50;;;;;;;19.75;71.22;99640.03;5020696;28;20243;-85
2022/08/12 06:58:23;;;;;;;3.00;1.70;;;;;;;19.78;72.75;99639.47;5039765;28;20709;-85
2022/08/12 07:00:50;;;;;;;2.20;1.60;;;;;;;20.26;70.46;99639.72;5021285;28;20217;-84
2022/08/12 07:03:22;;;;;;;3.17;1.57;;;;;;;20.45;68.81;99640.72;5013432;28;20226;-89
2022/08/12 07:05:49;;;;;;;2.07;1.73;;;;;;;20.35;69.71;99634.53;5008550;28;20250;-86
2022/08/12 07:08:17;;;;;;;2.97;1.70;;;;;;;20.13;69.63;99627.59;5024866;28;20238;-83
2022/08/12 07:10:56;;;;;;;2.37;2.03;;;;;;;20.45;67.50;99638.00;5041576;28;20663;-82
2022/08/12 07:13:23;;;;;;;1.80;1.70;;;;;;;20.54;68.92;99632.75;5024994;28;20255;-84
2022/08/12 07:15:55;;;;;;;2.23;1.90;;;;;;;20.35;67.97;99637.25;5064722;28;20266;-85
2022/08/12 07:18:27;;;;;;;4.67;1.80;;;;;;;20.58;66.58;99641.97;5045144;28;20240;-84
2022/08/12 07:20:53;;;;;;;2.77;1.47;;;;;;;20.81;65.45;99632.25;5043500;28;20227;-84
2022/08/12 07:23:20;;;;;;;3.50;1.60;;;;;;;21.04;66.14;99636.94;5060859;28;20247;-84
2022/08/12 07:25:47;;;;;;;2.37;1.80;;;;;;;21.15;65.13;99634.94;5047306;28;20231;-83
2022/08/12 07:28:22;;;;;;;2.60;1.90;;;;;;;21.41;63.82;99637.09;5039849;28;20319;-84
2022/08/12 07:30:51;;;;;;;2.80;1.53;;;;;;;21.45;63.03;99638.16;5040881;28;20234;-83
2022/08/12 07:33:21;;;;;;;2.73;1.80;;;;;;;21.45;61.37;99631.88;5063516;28;20230;-83
2022/08/12 07:35:49;;;;;;;3.17;1.67;;;;;;;21.59;61.09;99638.25;5066599;28;20234;-84
2022/08/12 07:38:32;;;;;;;3.30;1.83;;;;;;;21.65;60.45;99639.00;5031381;28;20242;-84
2022/08/12 07:41:01;;;;;;;5.10;1.77;;;;;;;21.60;60.50;99637.16;5026755;28;20252;-83
2022/08/12 07:43:29;;;;;;;2.23;1.70;;;;;;;21.50;57.67;99637.28;5059508;28;20707;-83
2022/08/12 07:45:56;;;;;;;2.87;1.60;;;;;;;21.62;58.15;99625.94;5056905;28;20268;-83
2022/08/12 07:48:23;;;;;;;2.50;1.70;;;;;;;21.64;58.49;99635.47;5062862;28;20237;-82
2022/08/12 07:50:50;;;;;;;2.50;1.43;;;;;;;21.61;58.78;99643.38;5034714;28;20637;-83
2022/08/12 07:53:18;;;;;;;1.83;1.30;;;;;;;21.51;56.35;99639.69;5029730;28;20234;-84
2022/08/12 07:55:45;;;;;;;2.37;1.43;;;;;;;21.54;55.82;99643.75;5038268;28;20247;-83
2022/08/12 07:58:12;;;;;;;3.07;1.50;;;;;;;21.79;54.21;99648.09;5029027;28;20270;-83
2022/08/12 08:00:39;;;;;;;3.27;1.50;;;;;;;22.10;53.33;99643.88;5035982;28;20229;-83
2022/08/12 08:03:06;;;;;;;1.93;1.60;;;;;;;22.65;54.03;99650.38;5046168;28;20315;-83
2022/08/12 08:05:38;;;;;;;4.70;1.87;;;;;;;23.01;51.79;99656.06;5043438;28;20237;-83
2022/08/12 08:08:25;;;;;;;3.17;1.80;;;;;;;23.45;49.94;99655.53;5045855;28;20256;-85
2022/08/12 08:12:52;;;;;;;3.20;1.52;;;;;;;23.91;49.85;99641.72;5041458;28;20228;-82
2022/08/12 08:13:42;;;;;;;2.45;1.50;;;;;;;24.14;48.24;99640.66;5043196;28;20279;-83
2022/08/12 08:16:08;;;;;;;3.47;1.60;;;;;;;24.38;48.55;99653.28;5025784;28;20230;-82
2022/08/12 08:18:36;;;;;;;2.05;1.40;;;;;;;24.09;46.13;99650.91;5035341;28;20225;-83
2022/08/12 08:21:03;;;;;;;1.77;1.60;;;;;;;23.91;45.80;99654.59;5038179;28;20227;-83
2022/08/12 08:26:25;;;;;;;1.73;1.60;;;;;;;23.74;47.49;99657.97;5046066;28;20241;-83
2022/08/12 08:28:52;;;;;;;2.22;1.50;;;;;;;23.34;48.60;99647.78;5052514;28;20646;-84
2022/08/12 08:31:20;;;;;;;4.45;1.60;;;;;;;23.33;48.40;99644.25;5034136;28;20305;-84
2022/08/12 08:33:47;;;;;;;2.50;1.58;;;;;;;23.36;48.65;99646.41;5047962;28;20784;-83
2022/08/12 08:36:33;;;;;;;1.60;1.50;;;;;;;23.36;47.80;99642.84;5046348;28;20317;-83
2022/08/12 08:39:03;;;;;;;2.95;1.63;;;;;;;23.50;48.55;99640.97;5033361;28;20238;-83
2022/08/12 08:44:36;;;;;;;2.17;1.42;;;;;;;23.81;45.83;99644.69;5028347;28;20226;-82
2022/08/12 08:47:04;;;;;;;2.30;1.40;;;;;;;23.99;43.67;99629.22;4996166;28;20229;-83
2022/08/12 08:49:31;;;;;;;2.55;1.50;;;;;;;23.99;43.41;99630.03;5062546;28;20643;-83
2022/08/12 08:52:06;;;;;;;2.53;1.50;;;;;;;24.10;44.18;99634.19;5029745;28;20236;-82
2022/08/12 08:54:33;;;;;;;2.53;1.35;;;;;;;24.25;43.62;99646.75;5026237;28;20229;-82
2022/08/12 08:57:01;;;;;;;1.83;1.50;;;;;;;24.25;44.69;99634.97;5010438;28;20743;-83
2022/08/12 08:59:28;;;;;;;2.30;1.73;;;;;;;24.32;44.88;99641.63;5047237;28;20596;-83
2022/08/12 09:01:54;;;;;;;3.08;1.65;;;;;;;24.30;45.37;99634.88;5012962;28;20235;-82
2022/08/12 09:04:24;;;;;;;3.72;1.73;;;;;;;24.28;46.99;99637.09;5009251;28;20763;-82
2022/08/12 09:07:11;;;;;;;1.88;1.58;;;;;;;24.28;46.90;99637.09;5030660;28;20251;-83
2022/08/12 09:09:43;;;;;;;1.63;1.52;;;;;;;24.18;44.97;99640.06;5031444;28;20250;-85
2022/08/12 09:15:35;;;;;;;1.38;1.27;;;;;;;24.08;46.54;99638.31;5028187;28;20322;-82
2022/08/12 09:18:04;;;;;;;1.75;1.60;;;;;;;24.01;45.91;99627.00;5022993;28;20232;-82
2022/08/12 09:20:35;;;;;;;2.63;1.77;;;;;;;24.24;45.35;99636.91;5015552;28;20239;-83
2022/08/12 09:23:09;;;;;;;1.60;1.50;;;;;;;24.13;45.44;99632.75;5022140;28;20760;-83
2022/08/12 09:25:57;;;;;;;2.58;1.50;;;;;;;24.48;44.97;99633.88;5018023;28;20233;-82
2022/08/12 09:28:29;;;;;;;3.75;1.40;;;;;;;24.50;45.27;99629.69;5024467;28;20312;-83
2022/08/12 09:30:58;;;;;;;2.35;1.70;;;;;;;24.67;43.99;99631.75;5025693;28;20226;-82
2022/08/12 09:33:32;;;;;;;2.55;1.77;;;;;;;24.80;43.74;99627.31;5032531;28;20300;-83
2022/08/12 09:36:20;;;;;;;1.88;1.40;;;;;;;25.02;44.48;99624.56;5022453;28;20246;-82
2022/08/12 09:39:07;;;;;;;1.80;1.38;;;;;;;24.98;43.08;99618.09;5018792;28;20280;-83
2022/08/12 09:47:51;;;;;;;4.13;1.58;;;;;;;25.04;44.84;99610.56;5047858;28;20236;-83
2022/08/12 09:50:25;;;;;;;1.95;1.40;;;;;;;25.13;43.23;99608.66;5045987;28;21991;-83
2022/08/12 09:53:08;;;;;;;2.67;1.55;;;;;;;25.31;42.20;99602.94;5034537;28;20234;-83
2022/08/12 09:55:46;;;;;;;2.38;1.30;;;;;;;25.35;41.51;99603.09;5017929;28;20238;-83
2022/08/12 09:58:36;;;;;;;3.08;1.52;;;;;;;25.44;42.02;99599.25;5025215;28;20262;-82
2022/08/12 10:01:23;;;;;;;2.20;1.48;;;;;;;25.13;41.38;99598.50;5044930;28;20281;-82
2022/08/12 10:03:50;;;;;;;2.67;1.40;;;;;;;25.38;41.98;99599.75;5052665;28;20303;-82
2022/08/12 10:06:30;;;;;;;2.97;1.40;;;;;;;25.61;41.79;99584.81;5048099;28;20287;-83
2022/08/12 10:09:06;;;;;;;2.83;1.60;;;;;;;25.66;42.43;99592.88;5053266;28;20733;-83
2022/08/12 10:14:43;;;;;;;2.90;1.50;;;;;;;25.66;40.71;99579.16;5050543;28;20246;-83
2022/08/12 10:17:22;;;;;;;3.17;1.60;;;;;;;25.72;41.01;99579.81;5020378;28;20335;-83
2022/08/12 10:19:51;;;;;;;2.88;1.42;;;;;;;25.86;39.35;99569.50;5051884;28;20715;-83
2022/08/12 10:22:22;;;;;;;3.92;1.30;;;;;;;25.92;38.85;99570.16;5034138;28;20698;-81
2022/08/12 10:31:06;;;;;;;2.55;1.05;;;;;;;26.28;38.80;99563.22;5035379;28;20236;-84
2022/08/12 10:33:43;;;;;;;4.25;1.30;;;;;;;25.79;37.61;99555.47;5033926;28;20225;-82
2022/08/12 10:36:37;;;;;;;2.72;1.20;;;;;;;25.97;37.61;99554.34;5023010;28;20244;-82
2022/08/12 10:39:14;;;;;;;1.85;1.20;;;;;;;26.03;36.95;99544.00;5037785;28;20234;-83
2022/08/12 10:44:59;;;;;;;2.22;1.35;;;;;;;26.28;38.03;99541.25;5053102;28;20298;-83
2022/08/12 10:47:27;;;;;;;1.98;1.40;;;;;;;26.53;37.02;99541.53;5022077;28;20229;-82
2022/08/12 10:50:14;;;;;;;2.03;1.30;;;;;;;26.55;37.60;99540.06;5069374;28;20282;-83
2022/08/12 10:53:03;;;;;;;3.20;1.40;;;;;;;26.39;38.51;99547.22;5056655;28;20297;-82
2022/08/12 10:55:34;;;;;;;1.35;1.25;;;;;;;26.70;36.82;99544.22;5053602;28;20331;-82
2022/08/12 10:58:01;;;;;;;8.75;1.50;;;;;;;26.86;36.40;99541.78;5052416;28;20703;-83
2022/08/12 11:00:47;;;;;;;2.50;1.20;;;;;;;26.26;36.59;99540.78;5036635;28;20245;-83
2022/08/12 11:03:36;;;;;;;2.35;1.20;;;;;;;26.41;36.88;99547.69;5053730;28;20228;-83
2022/08/12 11:06:22;;;;;;;1.95;1.30;;;;;;;26.36;37.51;99539.66;5053619;28;20271;-82
2022/08/12 11:09:10;;;;;;;1.73;1.30;;;;;;;26.52;36.67;99534.44;5056919;28;20239;-83
2022/08/12 11:11:37;;;;;;;2.13;1.20;;;;;;;26.64;37.11;99535.34;5058782;28;20318;-82
2022/08/12 11:14:31;;;;;;;1.33;1.10;;;;;;;26.86;36.47;99537.13;5055259;28;20244;-82
2022/08/12 11:17:16;;;;;;;1.75;1.20;;;;;;;26.83;36.12;99542.44;5050687;28;20229;-83
2022/08/12 11:20:03;;;;;;;2.22;1.23;;;;;;;26.57;36.04;99521.34;5051911;28;20232;-82
2022/08/12 11:22:30;;;;;;;2.50;1.50;;;;;;;26.86;35.91;99526.13;5055216;28;20304;-83
2022/08/12 11:25:09;;;;;;;2.50;1.20;;;;;;;27.00;35.94;99517.66;5054869;28;20233;-83
2022/08/12 11:27:37;;;;;;;2.85;1.10;;;;;;;27.22;35.14;99522.06;5034575;28;20711;-83
2022/08/12 11:30:04;;;;;;;1.30;1.20;;;;;;;26.69;36.27;99512.38;5035374;28;20224;-82
2022/08/12 11:32:50;;;;;;;1.33;1.20;;;;;;;26.59;36.39;99516.31;5041562;28;20229;-83
2022/08/12 11:35:17;;;;;;;2.88;1.25;;;;;;;26.80;36.12;99510.09;5054298;28;20336;-82
2022/08/12 11:37:44;;;;;;;2.25;1.15;;;;;;;26.86;35.41;99508.81;5054785;28;20291;-83
2022/08/12 11:40:25;;;;;;;1.95;1.23;;;;;;;27.22;35.84;99511.06;5077456;28;20645;-84
2022/08/12 11:42:54;;;;;;;1.55;1.35;;;;;;;27.49;34.66;99507.81;5041541;28;20225;-83
2022/08/12 11:45:41;;;;;;;2.10;1.10;;;;;;;27.22;34.59;99500.06;5034106;28;20241;-82
2022/08/12 11:48:12;;;;;;;3.75;1.27;;;;;;;27.38;36.13;99498.34;5052237;28;20724;-83
2022/08/12 11:50:44;;;;;;;1.20;1.10;;;;;;;27.43;34.41;99496.22;5059636;28;20243;-83
2022/08/12 11:53:10;;;;;;;1.58;1.10;;;;;;;27.76;34.15;99498.25;5061478;28;20625;-83
2022/08/12 11:55:57;;;;;;;1.45;1.20;;;;;;;27.77;34.75;99489.66;5051940;28;20237;-82
2022/08/12 11:58:24;;;;;;;1.40;1.30;;;;;;;27.48;35.31;99485.00;5062943;28;20319;-83
2022/08/12 12:01:10;;;;;;;4.82;1.30;;;;;;;27.47;34.04;99480.63;5033415;28;20307;-82
2022/08/12 12:03:57;;;;;;;2.03;1.10;;;;;;;27.77;33.50;99480.56;5011649;28;20231;-82
2022/08/12 12:06:24;;;;;;;1.65;1.00;;;;;;;27.97;34.52;99482.50;5019402;28;20229;-83
2022/08/12 12:08:51;;;;;;;1.20;1.10;;;;;;;27.28;34.74;99474.78;5038751;28;20291;-82
2022/08/12 12:11:20;;;;;;;1.20;1.10;;;;;;;27.58;33.91;99475.56;5035513;28;20228;-82
2022/08/12 12:13:48;;;;;;;1.40;1.30;;;;;;;27.21;35.05;99477.25;5018283;28;20234;-83
2022/08/12 12:16:35;;;;;;;2.85;1.42;;;;;;;27.39;33.49;99475.97;5034752;28;20323;-82
2022/08/12 12:19:07;;;;;;;1.40;1.10;;;;;;;27.55;33.19;99468.78;5071507;28;20267;-82
2022/08/12 12:21:36;;;;;;;3.72;1.02;;;;;;;27.88;33.40;99466.06;5038218;28;20757;-82
2022/08/12 12:24:15;;;;;;;1.20;1.10;;;;;;;28.20;33.31;99469.19;5034556;28;20317;-83
2022/08/12 12:26:51;;;;;;;1.20;1.10;;;;;;;28.01;32.20;99462.22;5019761;28;20222;-82
2022/08/12 12:29:30;;;;;;;1.35;1.25;;;;;;;27.87;32.26;99461.72;5032454;28;20313;-83
2022/08/12 12:32:18;;;;;;;1.50;1.40;;;;;;;28.27;32.74;99458.44;5013798;28;20779;-83
2022/08/12 12:34:54;;;;;;;1.83;1.20;;;;;;;28.22;32.66;99458.66;5023114;28;20209;-83
2022/08/12 12:38:01;;;;;;;1.88;1.00;;;;;;;27.82;32.50;99450.09;5032855;28;20280;-83
2022/08/12 12:40:39;;;;;;;1.63;1.20;;;;;;;27.73;32.31;99452.13;5033397;28;20249;-83
2022/08/12 12:43:06;;;;;;;1.08;1.08;;;;;;;27.83;32.33;99457.22;5018566;28;20312;-83
2022/08/12 12:45:35;;;;;;;3.20;1.05;;;;;;;27.80;32.82;99458.72;5023675;28;20716;-82
2022/08/12 12:48:04;;;;;;;2.35;0.90;;;;;;;28.23;31.94;99458.28;5048079;28;20329;-84
2022/08/12 12:50:36;;;;;;;1.75;0.98;;;;;;;28.54;31.69;99451.47;5034921;28;20238;-83
2022/08/12 12:53:20;;;;;;;3.55;1.15;;;;;;;28.71;30.87;99448.53;5019975;28;20237;-82
2022/08/12 12:56:14;;;;;;;3.58;1.13;;;;;;;28.56;30.91;99440.91;5011892;28;21018;-83
2022/08/12 12:58:41;;;;;;;1.77;1.30;;;;;;;28.61;31.72;99433.22;5060310;28;20228;-83
2022/08/12 13:01:12;;;;;;;2.83;1.20;;;;;;;28.63;30.91;99436.44;5057821;28;20224;-82
2022/08/12 13:03:58;;;;;;;1.92;1.10;;;;;;;28.75;30.78;99441.97;5042127;28;20319;-82
2022/08/12 13:06:28;;;;;;;2.22;1.10;;;;;;;28.99;30.92;99441.16;5035364;28;20675;-82
2022/08/12 13:08:58;;;;;;;1.88;1.20;;;;;;;29.48;29.90;99433.66;5054222;28;20225;-82
2022/08/12 13:11:30;;;;;;;1.92;1.10;;;;;;;29.66;29.59;99434.16;5035120;28;20724;-83
2022/08/12 13:14:11;;;;;;;1.70;1.10;;;;;;;29.62;29.20;99441.53;5055931;28;20679;-83
2022/08/12 13:16:59;;;;;;;2.15;1.30;;;;;;;29.23;29.92;99432.88;5055424;28;20786;-83
2022/08/12 13:19:30;;;;;;;1.77;1.05;;;;;;;29.18;30.00;99435.88;5038841;28;20225;-82
2022/08/12 13:22:19;;;;;;;1.20;1.05;;;;;;;29.52;28.93;99431.78;5038504;28;20307;-82
2022/08/12 13:24:51;;;;;;;1.98;1.48;;;;;;;29.87;28.00;99437.50;5053958;28;20414;-82
2022/08/12 13:27:32;;;;;;;2.05;1.00;;;;;;;30.03;27.73;99427.34;5039685;28;20256;-82
2022/08/12 13:30:09;;;;;;;2.17;1.10;;;;;;;30.02;27.32;99431.25;5036817;28;20252;-81
2022/08/12 13:32:45;;;;;;;3.58;1.20;;;;;;;30.41;27.14;99431.50;5038047;28;20250;-82
2022/08/12 13:35:25;;;;;;;2.30;1.30;;;;;;;30.69;28.16;99421.19;5016990;28;20253;-83
2022/08/12 13:38:12;;;;;;;2.15;1.20;;;;;;;30.51;27.19;99414.41;5058189;28;20249;-82
2022/08/12 13:40:39;;;;;;;2.15;1.20;;;;;;;30.71;26.28;99412.50;5042390;28;20316;-82
2022/08/12 13:43:06;;;;;;;1.33;1.20;;;;;;;30.81;26.51;99421.06;5035043;28;20229;-83
2022/08/12 13:45:34;;;;;;;3.95;1.20;;;;;;;31.46;26.19;99407.53;5033937;28;20680;-83
2022/08/12 13:48:06;;;;;;;1.13;1.10;;;;;;;32.15;25.12;99406.56;5054476;28;20237;-82
2022/08/12 13:50:35;;;;;;;1.15;0.93;;;;;;;32.13;24.66;99402.56;5049533;28;20225;-82
2022/08/12 13:53:13;;;;;;;1.20;1.10;;;;;;;32.01;24.58;99400.72;5033678;28;20257;-82
2022/08/12 13:55:51;;;;;;;1.50;0.90;;;;;;;32.58;22.52;99396.19;5030399;28;20689;-83